CheckWX is a tool to help pilots better visualize weather data.  It is not intended as a substitute for an official pre-flight weather briefing.

11:41:26 UTC

KSLE TAF
McNary Field Airport
Salem, Oregon, USA
KSLE 241120Z 2412/2512 15004KT P6SM OVC060 FM250000 VRB03KT P6SM SCT070 FM251000 00000KT 5SM BR FEW005

Feb-24@
12:00 UTC

Feb-24 @ 12:00 UTC

Feb-25@
00:00 UTC

Feb-25 @ 00:00 UTC

KSLE 241120Z 2412/2512 15004KT P6SM OVC060
Wind
  • 150° at 4 KTS
Cloud Levels
  • Overcast at 6,000' AGL

Feb-25@
00:00 UTC

Feb-25 @ 00:00 UTC

Feb-25@
10:00 UTC

Feb-25 @ 10:00 UTC

FM250000 VRB03KT P6SM SCT070

From

From Standard forecast or significant change

Wind
  • Variable at 3 KTS
Cloud Levels
  • Scattered at 7,000' AGL

Feb-25@
10:00 UTC

Feb-25 @ 10:00 UTC

Feb-25@
12:00 UTC

Feb-25 @ 12:00 UTC

FM251000 00000KT 5SM BR FEW005

From

From Standard forecast or significant change

Conditions
Mist
Cloud Levels
  • Few at 500' AGL